createdAt,value
2018-09-20T00:00:23.491Z,101276.86
2018-09-20T00:02:53.738Z,101276.67
2018-09-20T00:05:24.983Z,101274.70
2018-09-20T00:07:55.184Z,101266.67
2018-09-20T00:10:25.200Z,101269.72
2018-09-20T00:12:55.243Z,101269.98
2018-09-20T00:15:25.251Z,101257.84
2018-09-20T00:17:56.752Z,101259.08
2018-09-20T00:20:28.065Z,101261.92
2018-09-20T00:22:58.845Z,101259.91
2018-09-20T00:25:30.225Z,101264.97
2018-09-20T00:28:02.503Z,101259.27
2018-09-20T00:30:35.029Z,101262.22
2018-09-20T00:33:07.258Z,101264.34
2018-09-20T00:35:40.532Z,101266.30
2018-09-20T00:38:10.445Z,101257.88
2018-09-20T00:40:42.664Z,101259.98
2018-09-20T00:43:13.883Z,101248.97
2018-09-20T00:45:43.698Z,101250.05
2018-09-20T00:48:15.516Z,101253.75
2018-09-20T00:50:46.252Z,101261.02
2018-09-20T00:53:16.700Z,101255.96
2018-09-20T00:55:47.331Z,101258.06
2018-09-20T00:58:17.423Z,101261.95
2018-09-20T01:00:49.789Z,101264.08
2018-09-20T01:03:21.681Z,101267.30
2018-09-20T01:05:51.774Z,101268.98
2018-09-20T01:08:21.604Z,101266.08
2018-09-20T01:10:51.695Z,101268.80
2018-09-20T01:13:21.546Z,101269.20
2018-09-20T01:15:53.445Z,101270.28
2018-09-20T01:18:23.820Z,101269.94
2018-09-20T01:20:55.370Z,101271.02
2018-09-20T01:23:27.681Z,101266.06
2018-09-20T01:26:01.138Z,101276.50
2018-09-20T01:28:30.958Z,101267.65
2018-09-20T01:31:03.274Z,101272.42
2018-09-20T01:33:35.330Z,101272.00
2018-09-20T01:36:07.105Z,101277.19
2018-09-20T01:38:40.112Z,101269.36
2018-09-20T01:41:10.290Z,101271.69
2018-09-20T01:43:41.056Z,101274.67
2018-09-20T01:46:11.021Z,101272.88
2018-09-20T01:48:42.485Z,101276.64
2018-09-20T01:51:13.701Z,101275.88
2018-09-20T01:53:43.497Z,101280.05
2018-09-20T01:56:16.073Z,101272.88
2018-09-20T01:58:47.373Z,101283.88
2018-09-20T02:01:17.384Z,101280.50
2018-09-20T02:03:47.319Z,101281.20
2018-09-20T02:06:17.467Z,101284.98
2018-09-20T02:08:48.271Z,101283.31
2018-09-20T02:11:18.125Z,101280.66
2018-09-20T02:13:47.989Z,101288.84
2018-09-20T02:16:21.247Z,101283.95
2018-09-20T02:18:53.795Z,101287.60
2018-09-20T02:21:23.643Z,101290.73
2018-09-20T02:23:53.974Z,101281.23
2018-09-20T02:26:25.209Z,101278.75
2018-09-20T02:28:59.338Z,101284.72
2018-09-20T02:31:32.110Z,101287.27
2018-09-20T02:34:04.075Z,101280.21
2018-09-20T02:36:36.166Z,101283.31
2018-09-20T02:39:10.252Z,101286.88
2018-09-20T02:41:40.266Z,101288.58
2018-09-20T02:44:10.186Z,101278.02
2018-09-20T02:46:40.121Z,101280.16
2018-09-20T02:49:10.119Z,101275.42
2018-09-20T02:51:41.500Z,101271.24
2018-09-20T02:54:13.051Z,101285.53
2018-09-20T02:56:44.159Z,101281.23
2018-09-20T02:59:14.826Z,101279.29
2018-09-20T03:01:44.695Z,101280.34
2018-09-20T03:04:14.516Z,101281.23
2018-09-20T03:06:44.026Z,101282.27
2018-09-20T03:09:14.119Z,101279.55
2018-09-20T03:11:43.933Z,101276.20
2018-09-20T03:14:13.771Z,101280.95
2018-09-20T03:16:47.382Z,101279.19
2018-09-20T03:19:17.695Z,101276.28
2018-09-20T03:21:48.372Z,101278.52
2018-09-20T03:24:20.482Z,101278.79
2018-09-20T03:26:50.392Z,101283.17
2018-09-20T03:29:22.980Z,101279.98
2018-09-20T03:31:57.166Z,101276.81
2018-09-20T03:34:30.022Z,101284.83
2018-09-20T03:37:01.252Z,101291.91
2018-09-20T03:39:31.241Z,101286.23
2018-09-20T03:42:03.583Z,101280.76
2018-09-20T03:44:35.218Z,101288.72
2018-09-20T03:47:05.108Z,101292.28
2018-09-20T03:49:38.511Z,101293.53
2018-09-20T03:52:08.670Z,101300.20
2018-09-20T03:54:42.021Z,101301.49
2018-09-20T03:57:15.324Z,101297.61
2018-09-20T03:59:45.580Z,101292.17
2018-09-20T04:02:16.270Z,101286.30
2018-09-20T04:04:47.566Z,101292.47
2018-09-20T04:07:17.630Z,101296.30
2018-09-20T04:09:48.970Z,101295.33
2018-09-20T04:12:19.002Z,101299.29
2018-09-20T04:14:49.728Z,101295.05
2018-09-20T04:17:19.554Z,101293.41
2018-09-20T04:19:52.957Z,101289.73
2018-09-20T04:22:23.643Z,101289.67
2018-09-20T04:24:57.863Z,101287.81
2018-09-20T04:27:27.630Z,101288.38
2018-09-20T04:30:01.031Z,101288.09
2018-09-20T04:32:30.986Z,101278.73
2018-09-20T04:35:04.926Z,101284.65
2018-09-20T04:37:35.666Z,101290.63
2018-09-20T04:40:07.073Z,101292.67
2018-09-20T04:42:37.171Z,101291.03
2018-09-20T04:45:08.335Z,101294.35
2018-09-20T04:47:41.239Z,101294.17
2018-09-20T04:50:14.386Z,101296.17
2018-09-20T04:52:47.496Z,101295.09
2018-09-20T04:55:18.562Z,101296.45
2018-09-20T04:57:48.520Z,101299.59
2018-09-20T05:00:21.341Z,101297.34
2018-09-20T05:02:51.728Z,101297.28
2018-09-20T05:05:22.490Z,101291.97
2018-09-20T05:07:52.480Z,101291.28
2018-09-20T05:10:23.704Z,101296.99
2018-09-20T05:12:55.177Z,101307.55
2018-09-20T05:15:26.691Z,101306.66
2018-09-20T05:17:59.116Z,101310.33
2018-09-20T05:20:29.370Z,101305.12
2018-09-20T05:22:59.441Z,101308.11
2018-09-20T05:25:30.342Z,101318.91
2018-09-20T05:28:01.545Z,101316.84
2018-09-20T05:30:31.582Z,101308.80
2018-09-20T05:33:04.127Z,101313.03
2018-09-20T05:35:36.402Z,101309.86
2018-09-20T05:38:07.256Z,101310.61
2018-09-20T05:40:38.851Z,101314.39
2018-09-20T05:43:11.330Z,101305.08
2018-09-20T05:45:41.727Z,101311.64
2018-09-20T05:48:11.692Z,101314.53
2018-09-20T05:50:48.159Z,101317.63
2018-09-20T05:53:18.209Z,101316.45
2018-09-20T05:55:48.401Z,101316.66
2018-09-20T05:58:18.588Z,101320.91
2018-09-20T06:00:48.554Z,101320.84
2018-09-20T06:03:21.097Z,101321.19
2018-09-20T06:05:51.998Z,101326.36
2018-09-20T06:08:22.185Z,101317.82
2018-09-20T06:10:52.438Z,101312.01
2018-09-20T06:13:23.953Z,101319.13
2018-09-20T06:15:54.154Z,101315.78
2018-09-20T06:18:28.022Z,101317.76
2018-09-20T06:20:58.554Z,101316.41
2018-09-20T06:23:29.153Z,101318.23
2018-09-20T06:26:02.590Z,101315.34
2018-09-20T06:28:33.615Z,101305.03
2018-09-20T06:31:07.098Z,101306.22
2018-09-20T06:33:37.108Z,101313.16
2018-09-20T06:36:07.657Z,101306.09
2018-09-20T06:38:37.507Z,101312.16
2018-09-20T06:41:07.704Z,101315.75
2018-09-20T06:43:38.719Z,101311.16
2018-09-20T06:46:08.700Z,101315.89
2018-09-20T06:48:39.628Z,101318.25
2018-09-20T06:51:09.950Z,101308.45
2018-09-20T06:53:40.223Z,101311.80
2018-09-20T06:56:10.644Z,101314.53
2018-09-20T06:58:40.989Z,101317.50
2018-09-20T07:01:14.266Z,101313.54
2018-09-20T07:03:44.694Z,101308.28
2018-09-20T07:06:15.807Z,101301.50
2018-09-20T07:08:45.756Z,101308.03
2018-09-20T07:12:59.409Z,101315.84
2018-09-20T07:15:30.266Z,101316.64
2018-09-20T07:18:00.459Z,101318.16
2018-09-20T07:20:32.670Z,101314.41
2018-09-20T07:24:47.198Z,101318.50
2018-09-20T07:27:18.153Z,101313.27
2018-09-20T07:29:49.379Z,101311.70
2018-09-20T07:32:19.399Z,101308.63
2018-09-20T07:34:49.613Z,101306.20
2018-09-20T07:37:19.765Z,101304.64
2018-09-20T07:39:50.087Z,101300.41
2018-09-20T07:42:20.099Z,101300.52
2018-09-20T07:44:50.172Z,101286.75
2018-09-20T07:47:20.240Z,101288.38
2018-09-20T07:49:50.399Z,101292.81
2018-09-20T07:52:20.373Z,101287.42
2018-09-20T07:54:50.487Z,101286.72
2018-09-20T07:57:21.290Z,101286.97
2018-09-20T07:59:51.303Z,101293.48
2018-09-20T08:02:21.507Z,101289.93
2018-09-20T08:04:58.819Z,101284.89
2018-09-20T08:07:29.647Z,101290.27
2018-09-20T08:09:59.577Z,101282.56
2018-09-20T08:12:29.868Z,101299.62
2018-09-20T08:14:59.675Z,101303.44
2018-09-20T08:17:30.466Z,101307.53
2018-09-20T08:20:00.702Z,101306.08
2018-09-20T08:22:30.707Z,101306.10
2018-09-20T08:25:01.034Z,101307.06
2018-09-20T08:27:31.133Z,101312.33
2018-09-20T08:30:01.131Z,101302.73
2018-09-20T08:32:31.092Z,101303.08
2018-09-20T08:35:01.878Z,101294.02
2018-09-20T08:37:31.968Z,101291.34
2018-09-20T08:40:01.961Z,101277.05
2018-09-20T08:42:32.068Z,101295.39
2018-09-20T08:45:02.104Z,101279.33
2018-09-20T08:47:32.970Z,101294.70
2018-09-20T08:50:03.299Z,101291.60
2018-09-20T08:52:33.359Z,101288.24
2018-09-20T08:55:03.678Z,101294.66
2018-09-20T08:57:38.746Z,101296.18
2018-09-20T09:00:09.046Z,101295.88
2018-09-20T09:02:40.926Z,101297.13
2018-09-20T09:05:11.347Z,101290.70
2018-09-20T09:07:42.328Z,101283.73
2018-09-20T09:10:15.968Z,101296.52
2018-09-20T09:12:46.167Z,101287.64
2018-09-20T09:15:16.436Z,101289.20
2018-09-20T09:17:46.813Z,101289.72
2018-09-20T09:20:17.804Z,101290.70
2018-09-20T09:22:47.833Z,101283.12
2018-09-20T09:25:19.815Z,101284.90
2018-09-20T09:27:50.350Z,101285.75
2018-09-20T09:30:21.693Z,101283.11
2018-09-20T09:32:53.261Z,101276.72
2018-09-20T09:35:24.077Z,101267.52
2018-09-20T09:37:54.122Z,101271.33
2018-09-20T09:40:24.147Z,101267.87
2018-09-20T09:42:55.970Z,101260.94
2018-09-20T09:48:18.659Z,101255.52
2018-09-20T09:50:50.510Z,101258.25
2018-09-20T09:53:23.045Z,101262.19
2018-09-20T09:55:53.997Z,101259.48
2018-09-20T09:58:24.962Z,101258.34
2018-09-20T10:00:58.384Z,101251.03
2018-09-20T10:03:28.976Z,101253.25
2018-09-20T10:05:59.713Z,101265.69
2018-09-20T10:08:30.158Z,101245.58
2018-09-20T10:11:00.457Z,101253.77
2018-09-20T10:13:31.232Z,101251.53
2018-09-20T10:16:02.336Z,101256.48
2018-09-20T10:18:32.963Z,101243.33
2018-09-20T10:21:03.046Z,101237.80
2018-09-20T10:23:34.457Z,101243.99
2018-09-20T10:26:06.078Z,101244.38
2018-09-20T10:28:39.663Z,101240.62
2018-09-20T10:31:09.811Z,101238.15
2018-09-20T10:33:40.859Z,101244.21
2018-09-20T10:36:11.351Z,101236.89
2018-09-20T10:38:41.200Z,101233.95
2018-09-20T10:41:12.576Z,101232.06
2018-09-20T10:43:43.518Z,101235.42
2018-09-20T10:46:14.999Z,101239.11
2018-09-20T10:48:47.419Z,101229.81
2018-09-20T10:51:19.750Z,101220.23
2018-09-20T10:53:51.656Z,101226.55
2018-09-20T10:56:23.460Z,101217.52
2018-09-20T10:58:56.451Z,101223.81
2018-09-20T11:01:27.291Z,101229.06
2018-09-20T11:03:57.308Z,101223.07
2018-09-20T11:06:30.709Z,101226.65
2018-09-20T11:09:00.890Z,101227.53
2018-09-20T11:11:30.976Z,101224.23
2018-09-20T11:14:01.084Z,101225.05
2018-09-20T11:16:32.641Z,101228.92
2018-09-20T11:19:09.501Z,101214.91
2018-09-20T11:21:43.124Z,101226.84
2018-09-20T11:24:16.692Z,101225.77
2018-09-20T11:26:50.248Z,101216.94
2018-09-20T11:29:22.939Z,101216.81
2018-09-20T11:31:59.216Z,101222.11
2018-09-20T11:34:34.260Z,101224.94
2018-09-20T11:37:19.249Z,101222.13
2018-09-20T11:39:52.291Z,101219.73
2018-09-20T11:42:30.120Z,101217.98
2018-09-20T11:45:05.310Z,101212.77
2018-09-20T11:47:42.085Z,101209.22
2018-09-20T11:50:14.874Z,101212.40
2018-09-20T11:52:46.403Z,101215.16
2018-09-20T11:55:19.466Z,101210.83
2018-09-20T11:57:50.528Z,101209.47
2018-09-20T12:00:23.756Z,101204.56
2018-09-20T12:02:57.080Z,101216.29
2018-09-20T12:05:29.372Z,101209.87
2018-09-20T12:08:02.540Z,101217.66
2018-09-20T12:10:35.014Z,101205.95
2018-09-20T12:13:08.348Z,101203.19
2018-09-20T12:15:39.579Z,101204.83
2018-09-20T12:18:11.219Z,101204.80
2018-09-20T12:20:42.820Z,101205.55
2018-09-20T12:23:13.922Z,101201.93
2018-09-20T12:25:44.043Z,101192.48
2018-09-20T12:28:14.026Z,101202.17
2018-09-20T12:31:29.712Z,101195.61
2018-09-20T12:33:59.951Z,101200.17
2018-09-20T12:36:30.572Z,101195.42
2018-09-20T12:39:00.905Z,101198.85
2018-09-20T12:41:31.575Z,101195.92
2018-09-20T12:44:01.788Z,101197.67
2018-09-20T12:46:32.524Z,101200.59
2018-09-20T12:49:02.827Z,101197.34
2018-09-20T12:51:33.250Z,101201.76
2018-09-20T12:54:03.569Z,101194.05
2018-09-20T12:56:33.565Z,101188.33
2018-09-20T12:59:04.728Z,101182.52
2018-09-20T13:01:34.831Z,101180.98
2018-09-20T13:04:06.191Z,101185.91
2018-09-20T13:06:37.267Z,101183.27
2018-09-20T13:09:11.175Z,101174.48
2018-09-20T13:11:43.949Z,101186.66
2018-09-20T13:14:15.269Z,101179.29
2018-09-20T13:16:46.446Z,101172.63
2018-09-20T13:19:17.310Z,101159.61
2018-09-20T13:21:48.950Z,101157.56
2018-09-20T13:24:19.756Z,101158.19
2018-09-20T13:26:50.686Z,101148.45
2018-09-20T13:29:23.065Z,101145.01
2018-09-20T13:31:56.688Z,101144.49
2018-09-20T13:34:30.076Z,101147.54
2018-09-20T13:37:02.947Z,101146.46
2018-09-20T13:39:34.807Z,101150.34
2018-09-20T13:42:05.714Z,101147.23
2018-09-20T13:44:38.637Z,101145.31
2018-09-20T13:47:10.126Z,101141.66
2018-09-20T13:49:41.971Z,101141.99
2018-09-20T13:52:13.296Z,101135.89
2018-09-20T13:54:44.131Z,101125.88
2018-09-20T13:57:14.946Z,101119.41
2018-09-20T13:59:46.326Z,101116.45
2018-09-20T14:02:16.957Z,101109.77
2018-09-20T14:04:47.375Z,101107.17
2018-09-20T14:07:18.588Z,101113.94
2018-09-20T14:09:49.868Z,101101.70
2018-09-20T14:12:21.469Z,101095.77
2018-09-20T14:14:55.392Z,101092.45
2018-09-20T14:17:28.008Z,101088.03
2018-09-20T14:19:59.019Z,101076.48
2018-09-20T14:22:30.867Z,101099.27
2018-09-20T14:25:02.182Z,101094.47
2018-09-20T14:27:32.592Z,101102.00
2018-09-20T14:30:02.864Z,101100.78
2018-09-20T14:32:33.554Z,101106.09
2018-09-20T14:35:03.797Z,101101.70
2018-09-20T14:53:28.017Z,101105.86
2018-09-20T14:55:58.467Z,101096.92
2018-09-20T14:58:33.665Z,101095.78
2018-09-20T15:01:06.277Z,101098.95
2018-09-20T15:03:36.546Z,101103.27
2018-09-20T15:06:09.098Z,101097.80
2018-09-20T15:08:40.693Z,101100.17
2018-09-20T15:11:11.373Z,101105.71
2018-09-20T15:13:44.153Z,101109.52
2018-09-20T15:29:49.440Z,101094.69
2018-09-20T15:32:31.380Z,101094.60
2018-09-20T15:35:03.913Z,101093.80
2018-09-20T15:37:34.572Z,101083.39
2018-09-20T15:40:10.736Z,101083.93
2018-09-20T15:42:41.447Z,101080.14
2018-09-20T15:45:12.059Z,101080.94
2018-09-20T15:47:42.657Z,101073.09
2018-09-20T15:50:14.909Z,101076.19
2018-09-20T15:52:45.592Z,101075.59
2018-09-20T15:55:15.813Z,101073.60
2018-09-20T15:57:48.245Z,101073.00
2018-09-20T16:00:20.942Z,101070.05
2018-09-20T16:02:53.448Z,101070.56
2018-09-20T16:05:24.315Z,101068.88
2018-09-20T16:07:57.447Z,101069.51
2018-09-20T16:10:30.252Z,101071.39
2018-09-20T16:13:00.374Z,101074.27
2018-09-20T16:15:31.268Z,101076.02
2018-09-20T16:18:02.884Z,101069.94
2018-09-20T16:20:35.280Z,101070.14
2018-09-20T16:23:08.253Z,101067.27
2018-09-20T16:25:39.397Z,101063.45
2018-09-20T16:28:23.298Z,101063.34
2018-09-20T16:31:13.979Z,101070.67
2018-09-20T16:34:16.708Z,101062.62
2018-09-20T16:39:00.175Z,101061.38
2018-09-20T16:41:40.522Z,101056.53
2018-09-20T16:44:10.704Z,101041.38
2018-09-20T16:46:40.691Z,101045.90
2018-09-20T16:49:15.035Z,101053.47
2018-09-20T16:51:45.601Z,101051.73
2018-09-20T16:54:17.957Z,101055.45
2018-09-20T16:56:50.579Z,101047.88
2018-09-20T16:59:21.257Z,101046.19
2018-09-20T17:01:53.024Z,101040.97
2018-09-20T17:04:23.782Z,101044.84
2018-09-20T17:06:55.642Z,101041.03
2018-09-20T17:09:26.886Z,101038.67
2018-09-20T17:11:57.681Z,101030.20
2018-09-20T17:17:18.954Z,101022.44
2018-09-20T17:19:49.106Z,101027.01
2018-09-20T17:22:19.773Z,101024.56
2018-09-20T17:24:49.810Z,101021.47
2018-09-20T17:27:19.858Z,101028.20
2018-09-20T17:29:49.964Z,101027.40
2018-09-20T17:32:20.135Z,101028.48
2018-09-20T17:34:50.552Z,101039.30
2018-09-20T17:37:22.417Z,101036.39
2018-09-20T17:39:53.885Z,101025.25
2018-09-20T17:42:25.427Z,101024.59
2018-09-20T17:44:55.549Z,101027.23
2018-09-20T17:47:25.697Z,101020.31
2018-09-20T17:49:55.877Z,101021.78
2018-09-20T17:52:26.433Z,101023.52
2018-09-20T17:54:58.632Z,101022.95
2018-09-20T17:57:30.228Z,101017.69
2018-09-20T18:00:00.558Z,101022.77
2018-09-20T18:02:30.488Z,101026.01
2018-09-20T18:05:00.684Z,101024.69
2018-09-20T18:07:32.493Z,101018.53
2018-09-20T18:10:03.747Z,101022.25
2018-09-20T18:12:33.760Z,101011.77
2018-09-20T18:15:04.621Z,101003.45
2018-09-20T18:17:34.904Z,100992.35
2018-09-20T18:20:05.504Z,101001.90
2018-09-20T18:22:35.722Z,101000.05
2018-09-20T18:25:08.399Z,100998.73
2018-09-20T18:27:38.810Z,100987.84
2018-09-20T18:30:09.621Z,100989.57
2018-09-20T18:32:42.856Z,100988.76
2018-09-20T18:35:13.210Z,100991.95
2018-09-20T18:37:46.833Z,100996.45
2018-09-20T18:40:17.313Z,101006.09
2018-09-20T18:42:47.297Z,101008.38
2018-09-20T18:45:17.344Z,101001.70
2018-09-20T18:47:47.364Z,101002.28
2018-09-20T18:50:18.149Z,101003.67
2018-09-20T18:52:49.683Z,101002.72
2018-09-20T18:55:20.052Z,101009.77
2018-09-20T18:57:50.390Z,101009.02
2018-09-20T19:00:20.471Z,101005.34
2018-09-20T19:02:50.584Z,100991.48
2018-09-20T19:05:22.292Z,100987.94
2018-09-20T19:07:52.650Z,100985.42
2018-09-20T19:10:22.902Z,100982.32
2018-09-20T19:12:53.227Z,100972.41
2018-09-20T19:15:23.124Z,100973.09
2018-09-20T19:17:53.150Z,100982.59
2018-09-20T19:20:23.973Z,100987.30
2018-09-20T19:22:54.273Z,100987.11
2018-09-20T19:25:25.166Z,100977.31
2018-09-20T19:27:55.381Z,100968.24
2018-09-20T19:30:25.965Z,100968.25
2018-09-20T19:32:56.147Z,100964.03
2018-09-20T19:35:27.340Z,100957.53
2018-09-20T19:37:57.719Z,100959.27
2018-09-20T19:40:28.763Z,100960.27
2018-09-20T19:42:59.064Z,100953.03
2018-09-20T19:45:31.110Z,100955.23
2018-09-20T19:48:01.691Z,100951.89
2018-09-20T19:50:33.066Z,100948.92
2018-09-20T19:53:03.399Z,100951.41
2018-09-20T19:55:34.375Z,100943.62
2018-09-20T19:58:05.492Z,100940.56
2018-09-20T20:00:36.130Z,100935.27
2018-09-20T20:03:07.984Z,100935.74
2018-09-20T20:05:39.254Z,100935.02
2018-09-20T20:08:11.130Z,100925.00
2018-09-20T20:10:42.990Z,100921.57
2018-09-20T20:13:13.253Z,100922.67
2018-09-20T20:15:43.820Z,100916.72
2018-09-20T20:18:13.955Z,100911.13
2018-09-20T20:20:44.737Z,100908.03
2018-09-20T20:23:15.214Z,100908.16
2018-09-20T20:25:45.591Z,100906.41
2018-09-20T20:28:16.077Z,100899.23
2018-09-20T20:30:46.541Z,100898.36
2018-09-20T20:33:16.677Z,100895.27
2018-09-20T20:35:47.657Z,100894.28
2018-09-20T20:38:18.083Z,100895.56
2018-09-20T20:40:48.306Z,100900.38
2018-09-20T20:43:20.095Z,100894.84
2018-09-20T20:45:50.204Z,100892.02
2018-09-20T20:48:20.404Z,100892.73
2018-09-20T20:50:50.346Z,100883.83
2018-09-20T20:53:20.389Z,100880.13
2018-09-20T20:55:50.615Z,100870.50
2018-09-20T20:58:21.103Z,100861.88
2018-09-20T21:00:51.338Z,100864.20
2018-09-20T21:03:21.639Z,100859.88
2018-09-20T21:05:52.385Z,100862.82
2018-09-20T21:08:24.218Z,100858.64
2018-09-20T21:10:55.524Z,100863.70
2018-09-20T21:13:27.030Z,100850.31
2018-09-20T21:15:57.219Z,100847.48
2018-09-20T21:18:27.678Z,100844.43
2018-09-20T21:21:00.155Z,100846.91
2018-09-20T21:23:33.433Z,100840.09
2018-09-20T21:26:04.982Z,100842.31
2018-09-20T21:28:36.752Z,100833.67
2018-09-20T21:31:07.461Z,100824.78
2018-09-20T21:33:38.810Z,100822.34
2018-09-20T21:36:08.848Z,100816.28
2018-09-20T21:38:40.913Z,100814.43
2018-09-20T21:41:11.022Z,100806.37
2018-09-20T21:43:41.176Z,100802.83
2018-09-20T21:46:13.041Z,100798.63
2018-09-20T21:48:44.377Z,100791.22
2018-09-20T21:51:15.741Z,100787.16
2018-09-20T21:53:46.561Z,100780.23
2018-09-20T21:56:16.678Z,100778.00
2018-09-20T21:58:46.953Z,100771.00
2018-09-20T22:01:17.241Z,100767.40
2018-09-20T22:03:47.514Z,100771.59
2018-09-20T22:06:17.554Z,100771.72
2018-09-20T22:08:47.470Z,100763.55
2018-09-20T22:11:17.563Z,100753.17
2018-09-20T22:13:48.544Z,100754.88
2018-09-20T22:16:19.063Z,100750.30
2018-09-20T22:18:50.084Z,100747.59
2018-09-20T22:21:20.177Z,100756.75
2018-09-20T22:23:50.704Z,100745.87
2018-09-20T22:26:20.876Z,100746.86
2018-09-20T22:28:52.722Z,100736.97
2018-09-20T22:31:23.047Z,100734.36
2018-09-20T22:33:53.431Z,100731.41
2018-09-20T22:36:23.420Z,100727.94
2018-09-20T22:38:53.430Z,100722.64
2018-09-20T22:41:23.987Z,100715.47
2018-09-20T22:43:54.148Z,100715.63
2018-09-20T22:46:24.229Z,100704.76
2018-09-20T22:49:42.875Z,100704.03
2018-09-20T22:52:12.897Z,100693.03
2018-09-20T22:54:44.246Z,100695.66
2018-09-20T22:57:14.261Z,100686.39
2018-09-20T22:59:46.389Z,100681.81
2018-09-20T23:02:16.806Z,100674.19
2018-09-20T23:04:46.900Z,100664.81
2018-09-20T23:07:17.086Z,100664.28
2018-09-20T23:09:47.154Z,100656.88
2018-09-20T23:12:17.431Z,100649.98
2018-09-20T23:14:47.489Z,100649.82
2018-09-20T23:17:17.481Z,100647.08
2018-09-20T23:19:49.274Z,100641.08
2018-09-20T23:22:19.327Z,100635.38
2018-09-20T23:24:49.581Z,100636.39
2018-09-20T23:27:19.462Z,100635.38
2018-09-20T23:29:49.456Z,100626.75
2018-09-20T23:32:19.504Z,100625.77
2018-09-20T23:34:49.637Z,100621.58
2018-09-20T23:37:21.642Z,100621.72
2018-09-20T23:39:51.655Z,100613.94
2018-09-20T23:42:22.565Z,100610.77
2018-09-20T23:44:52.909Z,100605.12
2018-09-20T23:47:25.281Z,100592.13
2018-09-20T23:49:55.685Z,100592.13
2018-09-20T23:52:27.094Z,100591.65
2018-09-20T23:54:57.035Z,100589.89
2018-09-20T23:57:27.211Z,100583.61
2018-09-20T23:59:59.195Z,100581.16
